createdAt,value
2018-03-25T00:01:13.586Z,34.67
2018-03-25T00:03:41.112Z,34.13
2018-03-25T00:06:08.599Z,33.10
2018-03-25T00:08:36.111Z,34.53
2018-03-25T00:11:03.643Z,32.77
2018-03-25T00:13:31.141Z,34.17
2018-03-25T00:15:58.634Z,35.57
2018-03-25T00:18:26.155Z,34.77
2018-03-25T00:20:53.658Z,35.90
2018-03-25T00:23:21.154Z,36.67
2018-03-25T00:25:48.691Z,38.00
2018-03-25T00:28:16.187Z,35.80
2018-03-25T00:30:43.672Z,35.30
2018-03-25T00:33:11.192Z,35.17
2018-03-25T00:35:38.707Z,34.97
2018-03-25T00:38:06.203Z,34.57
2018-03-25T00:40:33.721Z,35.10
2018-03-25T00:43:01.222Z,32.87
2018-03-25T00:45:28.758Z,36.97
2018-03-25T00:47:56.262Z,37.10
2018-03-25T00:50:23.771Z,35.33
2018-03-25T00:52:51.317Z,36.33
2018-03-25T00:55:18.789Z,37.37
2018-03-25T00:57:46.288Z,37.03
2018-03-25T01:00:13.827Z,40.33
2018-03-25T01:02:41.323Z,42.40
2018-03-25T01:05:08.840Z,42.80
2018-03-25T01:07:36.373Z,40.90
2018-03-25T01:10:03.842Z,38.73
2018-03-25T01:12:31.357Z,41.97
2018-03-25T01:14:58.886Z,39.67
2018-03-25T01:17:26.432Z,42.77
2018-03-25T01:19:53.920Z,44.90
2018-03-25T01:22:21.470Z,48.50
2018-03-25T01:24:48.961Z,49.47
2018-03-25T01:27:16.486Z,48.80
2018-03-25T01:29:44.040Z,47.50
2018-03-25T01:32:11.554Z,44.80
2018-03-25T01:34:39.042Z,42.77
2018-03-25T01:37:06.555Z,40.90
2018-03-25T01:39:34.050Z,41.67
2018-03-25T01:42:01.578Z,41.30
2018-03-25T01:44:29.078Z,44.97
2018-03-25T01:46:56.609Z,44.13
2018-03-25T01:49:24.097Z,42.90
2018-03-25T01:51:51.610Z,40.10
2018-03-25T01:54:19.102Z,39.63
2018-03-25T01:56:46.629Z,39.03
2018-03-25T01:59:14.126Z,40.27
2018-03-25T02:01:41.673Z,39.50
2018-03-25T02:04:09.163Z,41.37
2018-03-25T02:06:36.659Z,39.70
2018-03-25T02:09:04.165Z,37.40
2018-03-25T02:11:31.655Z,39.83
2018-03-25T02:13:59.182Z,40.03
2018-03-25T02:16:26.679Z,38.60
2018-03-25T02:18:54.199Z,42.37
2018-03-25T02:21:21.689Z,40.60
2018-03-25T02:23:49.213Z,39.00
2018-03-25T02:26:16.708Z,40.33
2018-03-25T02:28:44.234Z,40.03
2018-03-25T02:31:11.732Z,39.57
2018-03-25T02:33:39.271Z,38.27
2018-03-25T02:36:06.770Z,39.40
2018-03-25T02:38:34.277Z,38.13
2018-03-25T02:41:01.762Z,38.10
2018-03-25T02:43:29.287Z,36.53
2018-03-25T02:45:56.823Z,39.80
2018-03-25T02:48:24.335Z,41.40
2018-03-25T02:50:51.862Z,40.93
2018-03-25T02:53:19.404Z,40.80
2018-03-25T02:55:46.898Z,40.57
2018-03-25T02:58:14.409Z,42.53
2018-03-25T03:00:41.942Z,42.70
2018-03-25T03:03:09.426Z,39.77
2018-03-25T03:05:36.948Z,41.00
2018-03-25T03:08:04.473Z,41.40
2018-03-25T03:10:32.020Z,44.20
2018-03-25T03:12:59.512Z,40.50
2018-03-25T03:15:27.029Z,37.80
2018-03-25T03:17:54.519Z,37.60
2018-03-25T03:20:22.059Z,39.20
2018-03-25T03:22:49.566Z,40.63
2018-03-25T03:25:17.085Z,43.57
2018-03-25T03:27:44.570Z,42.13
2018-03-25T03:30:12.083Z,42.20
2018-03-25T03:32:39.606Z,41.67
2018-03-25T03:35:07.132Z,43.13
2018-03-25T03:37:34.645Z,45.20
2018-03-25T03:40:02.173Z,49.47
2018-03-25T03:42:29.687Z,51.90
2018-03-25T03:44:57.206Z,48.43
2018-03-25T03:47:24.715Z,49.87
2018-03-25T03:49:52.239Z,47.30
2018-03-25T03:52:19.737Z,44.67
2018-03-25T03:54:47.303Z,46.30
2018-03-25T03:57:14.795Z,46.27
2018-03-25T03:59:42.290Z,45.27
2018-03-25T04:02:09.839Z,46.60
2018-03-25T04:04:37.343Z,49.23
2018-03-25T04:07:04.857Z,55.70
2018-03-25T04:09:32.350Z,55.40
2018-03-25T04:11:59.884Z,58.10
2018-03-25T04:14:27.384Z,60.40
2018-03-25T04:16:54.903Z,65.03
2018-03-25T04:19:22.390Z,64.70
2018-03-25T04:21:49.906Z,65.70
2018-03-25T04:24:17.406Z,66.03
2018-03-25T04:26:44.918Z,59.53
2018-03-25T04:29:12.421Z,56.70
2018-03-25T04:31:39.950Z,50.47
2018-03-25T04:34:07.453Z,55.43
2018-03-25T04:36:35.005Z,59.37
2018-03-25T04:39:03.226Z,61.17
2018-03-25T04:41:30.748Z,53.70
2018-03-25T04:43:58.259Z,56.30
2018-03-25T04:46:25.782Z,55.37
2018-03-25T04:48:53.287Z,59.67
2018-03-25T04:51:20.816Z,60.80
2018-03-25T04:53:48.314Z,57.00
2018-03-25T04:56:15.827Z,56.73
2018-03-25T04:58:43.346Z,63.37
2018-03-25T05:01:10.847Z,69.30
2018-03-25T05:03:38.368Z,67.63
2018-03-25T05:06:05.891Z,69.90
2018-03-25T05:08:33.414Z,65.40
2018-03-25T05:11:00.930Z,68.10
2018-03-25T05:13:28.453Z,66.63
2018-03-25T05:15:55.951Z,61.47
2018-03-25T05:18:23.485Z,59.13
2018-03-25T05:20:50.984Z,66.03
2018-03-25T05:23:18.513Z,60.03
2018-03-25T05:25:46.007Z,58.87
2018-03-25T05:28:13.526Z,56.43
2018-03-25T05:30:41.076Z,51.30
2018-03-25T05:33:08.612Z,46.83
2018-03-25T05:35:36.114Z,46.83
2018-03-25T05:38:03.639Z,39.63
2018-03-25T05:40:31.160Z,42.40
2018-03-25T05:42:58.678Z,40.83
2018-03-25T05:45:26.162Z,39.63
2018-03-25T05:47:53.699Z,35.20
2018-03-25T05:50:21.198Z,35.90
2018-03-25T05:52:48.682Z,36.20
2018-03-25T05:55:16.189Z,34.43
2018-03-25T05:57:43.692Z,35.40
2018-03-25T06:00:11.258Z,36.00
2018-03-25T06:02:38.751Z,33.83
2018-03-25T06:05:06.275Z,31.37
2018-03-25T06:07:33.783Z,32.97
2018-03-25T06:10:01.289Z,33.60
2018-03-25T06:12:28.799Z,32.53
2018-03-25T06:14:56.314Z,30.27
2018-03-25T06:17:23.807Z,30.10
2018-03-25T06:19:51.315Z,24.07
2018-03-25T06:22:18.798Z,31.33
2018-03-25T06:24:46.310Z,34.27
2018-03-25T06:27:13.797Z,31.13
2018-03-25T06:29:41.303Z,32.53
2018-03-25T06:32:08.789Z,31.00
2018-03-25T06:34:36.304Z,32.37
2018-03-25T06:37:03.791Z,32.17
2018-03-25T06:39:31.306Z,29.90
2018-03-25T06:41:58.796Z,29.67
2018-03-25T06:44:26.319Z,28.57
2018-03-25T06:46:53.811Z,27.93
2018-03-25T06:49:21.308Z,28.67
2018-03-25T06:51:48.809Z,28.30
2018-03-25T06:54:16.349Z,28.90
2018-03-25T06:56:43.855Z,29.20
2018-03-25T06:59:11.349Z,29.60
2018-03-25T07:01:38.867Z,30.17
2018-03-25T07:04:06.350Z,28.50
2018-03-25T07:06:33.879Z,29.27
2018-03-25T07:09:01.364Z,28.43
2018-03-25T07:11:28.888Z,28.67
2018-03-25T07:13:56.385Z,28.30
2018-03-25T07:16:23.898Z,27.60
2018-03-25T07:18:51.391Z,27.43
2018-03-25T07:21:18.912Z,26.67
2018-03-25T07:23:46.518Z,28.20
2018-03-25T07:26:14.038Z,28.50
2018-03-25T07:28:41.635Z,27.57
2018-03-25T07:31:09.232Z,28.10
2018-03-25T07:33:36.837Z,29.67
2018-03-25T07:36:04.382Z,26.57
2018-03-25T07:38:31.883Z,28.03
2018-03-25T07:40:59.615Z,28.07
2018-03-25T07:43:27.149Z,27.17
2018-03-25T07:45:54.636Z,28.47
2018-03-25T07:48:22.409Z,28.57
2018-03-25T07:50:51.725Z,28.10
2018-03-25T07:53:19.689Z,27.03
2018-03-25T07:55:47.273Z,27.80
2018-03-25T07:58:14.783Z,26.60
2018-03-25T08:00:42.286Z,27.93
2018-03-25T08:03:09.822Z,27.57
2018-03-25T08:05:37.498Z,26.93
2018-03-25T08:08:05.026Z,27.37
2018-03-25T08:10:32.529Z,28.80
2018-03-25T08:13:00.239Z,26.93
2018-03-25T08:15:27.920Z,26.87
2018-03-25T08:17:55.458Z,28.30
2018-03-25T08:20:22.948Z,28.87
2018-03-25T08:22:50.675Z,27.33
2018-03-25T08:25:18.319Z,28.47
2018-03-25T08:27:45.883Z,28.33
2018-03-25T08:30:13.384Z,28.83
2018-03-25T08:32:40.911Z,28.37
2018-03-25T08:35:08.399Z,29.13
2018-03-25T08:37:35.924Z,27.37
2018-03-25T08:40:03.415Z,27.67
2018-03-25T08:42:30.907Z,29.47
2018-03-25T08:44:58.417Z,29.47
2018-03-25T08:47:26.220Z,27.70
2018-03-25T08:49:53.737Z,29.70
2018-03-25T08:52:21.252Z,27.83
2018-03-25T08:54:48.761Z,28.83
2018-03-25T08:57:16.246Z,28.67
2018-03-25T08:59:43.774Z,28.47
2018-03-25T09:02:11.284Z,29.33
2018-03-25T09:04:38.821Z,30.37
2018-03-25T09:07:06.316Z,30.40
2018-03-25T09:09:33.836Z,28.60
2018-03-25T09:12:01.350Z,29.97
2018-03-25T09:14:28.859Z,29.43
2018-03-25T09:16:56.349Z,29.77
2018-03-25T09:19:23.909Z,30.77
2018-03-25T09:21:51.408Z,29.60
2018-03-25T09:24:18.922Z,31.40
2018-03-25T09:26:46.423Z,31.57
2018-03-25T09:29:13.934Z,31.53
2018-03-25T09:31:41.417Z,32.43
2018-03-25T09:34:08.902Z,32.50
2018-03-25T09:36:36.415Z,32.93
2018-03-25T09:39:03.913Z,32.37
2018-03-25T09:41:31.432Z,32.73
2018-03-25T09:43:58.963Z,31.93
2018-03-25T09:46:26.446Z,31.57
2018-03-25T09:48:53.942Z,32.43
2018-03-25T09:51:21.459Z,29.80
2018-03-25T09:53:48.951Z,32.53
2018-03-25T09:56:16.466Z,31.53
2018-03-25T09:58:43.985Z,29.63
2018-03-25T10:04:16.391Z,31.60
2018-03-25T10:06:43.927Z,30.70
2018-03-25T10:09:11.422Z,30.87
2018-03-25T10:11:38.943Z,31.00
2018-03-25T10:14:06.448Z,31.33
2018-03-25T10:16:33.976Z,31.97
2018-03-25T10:19:01.466Z,30.20
2018-03-25T10:21:28.987Z,29.20
2018-03-25T10:23:56.479Z,29.47
2018-03-25T10:26:23.986Z,30.87
2018-03-25T10:28:51.483Z,29.77
2018-03-25T10:31:19.006Z,29.87
2018-03-25T10:33:46.507Z,28.67
2018-03-25T10:36:14.042Z,27.50
2018-03-25T10:38:41.534Z,28.60
2018-03-25T10:41:09.019Z,28.60
2018-03-25T10:43:36.538Z,27.77
2018-03-25T10:46:04.029Z,28.67
2018-03-25T10:48:31.553Z,28.50
2018-03-25T10:50:59.047Z,28.27
2018-03-25T10:53:26.563Z,28.03
2018-03-25T10:55:54.056Z,28.27
2018-03-25T10:58:21.586Z,29.67
2018-03-25T11:00:49.075Z,27.67
2018-03-25T11:03:16.595Z,26.83
2018-03-25T11:05:44.085Z,26.43
2018-03-25T11:08:11.601Z,28.77
2018-03-25T11:10:39.119Z,26.97
2018-03-25T11:13:06.627Z,29.57
2018-03-25T11:15:34.119Z,28.17
2018-03-25T11:18:01.635Z,27.13
2018-03-25T11:20:29.143Z,28.07
2018-03-25T11:22:56.654Z,27.73
2018-03-25T11:25:24.142Z,29.07
2018-03-25T11:27:51.663Z,27.37
2018-03-25T11:30:19.150Z,26.47
2018-03-25T11:32:46.658Z,28.27
2018-03-25T11:35:14.147Z,27.13
2018-03-25T11:37:41.638Z,28.27
2018-03-25T11:40:09.148Z,29.00
2018-03-25T11:42:36.637Z,27.83
2018-03-25T11:45:04.149Z,27.13
2018-03-25T11:47:31.681Z,25.40
2018-03-25T11:49:59.170Z,27.20
2018-03-25T11:52:26.659Z,26.67
2018-03-25T11:54:54.174Z,28.17
2018-03-25T11:57:21.658Z,27.37
2018-03-25T11:59:49.165Z,27.80
2018-03-25T12:02:16.659Z,27.90
2018-03-25T12:04:44.179Z,26.33
2018-03-25T12:07:11.675Z,26.00
2018-03-25T12:09:39.191Z,25.00
2018-03-25T12:12:06.678Z,28.40
2018-03-25T12:14:34.191Z,27.83
2018-03-25T12:17:01.695Z,27.00
2018-03-25T12:19:29.211Z,26.37
2018-03-25T12:21:56.715Z,26.23
2018-03-25T12:24:24.226Z,26.33
2018-03-25T12:26:51.718Z,25.73
2018-03-25T12:29:19.203Z,26.90
2018-03-25T12:31:46.712Z,25.93
2018-03-25T12:34:14.207Z,26.27
2018-03-25T12:36:41.714Z,25.73
2018-03-25T12:39:09.211Z,27.07
2018-03-25T12:41:36.768Z,27.03
2018-03-25T12:44:04.259Z,27.43
2018-03-25T12:46:31.798Z,26.57
2018-03-25T12:48:59.291Z,27.30
2018-03-25T12:51:26.798Z,25.80
2018-03-25T12:53:54.290Z,26.37
2018-03-25T12:56:21.802Z,25.77
2018-03-25T12:58:49.288Z,25.37
2018-03-25T13:01:16.831Z,24.60
2018-03-25T13:03:44.319Z,25.80
2018-03-25T13:06:11.834Z,24.43
2018-03-25T13:08:39.328Z,23.90
2018-03-25T13:11:06.842Z,24.00
2018-03-25T13:13:34.330Z,24.90
2018-03-25T13:16:01.843Z,23.90
2018-03-25T13:18:29.355Z,24.33
2018-03-25T13:20:56.879Z,24.37
2018-03-25T13:23:24.372Z,26.17
2018-03-25T13:25:51.862Z,24.70
2018-03-25T13:28:19.402Z,25.17
2018-03-25T13:30:46.890Z,25.03
2018-03-25T13:33:14.407Z,24.40
2018-03-25T13:35:41.889Z,24.23
2018-03-25T13:38:09.414Z,20.77
2018-03-25T13:40:36.907Z,24.33
2018-03-25T13:43:04.428Z,24.77
2018-03-25T13:45:31.914Z,24.57
2018-03-25T13:47:59.431Z,24.37
2018-03-25T13:50:26.921Z,24.97
2018-03-25T13:52:54.434Z,24.40
2018-03-25T13:55:21.918Z,23.80
2018-03-25T13:57:49.426Z,24.13
2018-03-25T14:00:16.918Z,25.80
2018-03-25T14:02:44.431Z,25.80
2018-03-25T14:05:11.918Z,26.37
2018-03-25T14:07:39.447Z,25.80
2018-03-25T14:10:06.930Z,25.23
2018-03-25T14:12:34.438Z,24.70
2018-03-25T14:15:02.003Z,25.37
2018-03-25T14:17:29.577Z,23.27
2018-03-25T14:19:57.036Z,23.97
2018-03-25T14:22:24.522Z,24.43
2018-03-25T14:24:52.056Z,23.53
2018-03-25T14:27:19.543Z,21.03
2018-03-25T14:29:47.112Z,20.20
2018-03-25T14:32:14.570Z,22.00
2018-03-25T14:34:42.083Z,21.80
2018-03-25T14:37:09.584Z,21.67
2018-03-25T14:39:37.097Z,21.33
2018-03-25T14:42:04.586Z,21.87
2018-03-25T14:44:32.107Z,22.00
2018-03-25T14:46:59.601Z,22.10
2018-03-25T14:49:27.114Z,22.07
2018-03-25T14:51:54.598Z,22.80
2018-03-25T14:54:22.127Z,20.47
2018-03-25T14:56:49.623Z,22.37
2018-03-25T14:59:17.141Z,21.40
2018-03-25T15:01:44.643Z,22.07
2018-03-25T15:04:12.167Z,21.43
2018-03-25T15:06:39.658Z,20.93
2018-03-25T15:09:07.178Z,21.00
2018-03-25T15:11:34.666Z,20.73
2018-03-25T15:14:02.182Z,21.07
2018-03-25T15:16:29.670Z,21.83
2018-03-25T15:18:57.159Z,19.97
2018-03-25T15:21:24.681Z,21.33
2018-03-25T15:23:52.174Z,20.77
2018-03-25T15:26:19.690Z,21.07
2018-03-25T15:28:47.187Z,21.67
2018-03-25T15:31:14.739Z,21.90
2018-03-25T15:33:42.226Z,22.73
2018-03-25T15:36:09.744Z,22.63
2018-03-25T15:38:37.239Z,21.13
2018-03-25T15:41:04.786Z,22.07
2018-03-25T15:43:32.279Z,20.70
2018-03-25T15:45:59.805Z,22.20
2018-03-25T15:48:27.294Z,23.87
2018-03-25T15:50:54.810Z,22.43
2018-03-25T15:53:22.331Z,22.17
2018-03-25T15:55:49.852Z,22.13
2018-03-25T15:58:17.369Z,21.13
2018-03-25T16:00:44.891Z,22.27
2018-03-25T16:03:12.382Z,22.73
2018-03-25T16:05:39.907Z,22.10
2018-03-25T16:08:07.398Z,22.23
2018-03-25T16:10:34.923Z,21.60
2018-03-25T16:13:02.417Z,23.13
2018-03-25T16:15:29.906Z,22.27
2018-03-25T16:17:57.414Z,21.57
2018-03-25T16:20:24.936Z,21.40
2018-03-25T16:22:52.458Z,20.23
2018-03-25T16:25:19.961Z,20.27
2018-03-25T16:27:47.466Z,21.97
2018-03-25T16:30:14.963Z,20.07
2018-03-25T16:32:42.483Z,22.33
2018-03-25T16:35:09.983Z,20.97
2018-03-25T16:37:37.506Z,21.87
2018-03-25T16:40:04.995Z,21.97
2018-03-25T16:42:32.515Z,21.37
2018-03-25T16:45:00.013Z,21.13
2018-03-25T16:47:27.535Z,21.47
2018-03-25T16:49:55.025Z,21.87
2018-03-25T16:52:22.543Z,22.63
2018-03-25T16:54:50.035Z,20.73
2018-03-25T16:57:17.547Z,21.47
2018-03-25T16:59:45.044Z,21.03
2018-03-25T17:02:12.563Z,22.30
2018-03-25T17:04:40.063Z,21.43
2018-03-25T17:07:07.559Z,21.13
2018-03-25T17:09:35.095Z,21.43
2018-03-25T17:12:02.581Z,22.17
2018-03-25T17:14:30.100Z,21.23
2018-03-25T17:16:57.599Z,20.30
2018-03-25T17:19:25.119Z,20.23
2018-03-25T17:21:52.657Z,21.03
2018-03-25T17:24:20.174Z,19.70
2018-03-25T17:26:47.667Z,23.10
2018-03-25T17:29:15.186Z,23.23
2018-03-25T17:31:42.728Z,24.57
2018-03-25T17:34:10.338Z,23.33
2018-03-25T17:36:37.858Z,22.67
2018-03-25T17:39:05.635Z,22.83
2018-03-25T17:41:33.158Z,24.30
2018-03-25T17:44:00.838Z,22.43
2018-03-25T17:46:28.471Z,22.60
2018-03-25T17:48:56.178Z,21.80
2018-03-25T17:51:23.706Z,22.07
2018-03-25T17:53:51.401Z,22.80
2018-03-25T17:56:18.923Z,22.43
2018-03-25T17:58:46.565Z,22.73
2018-03-25T18:01:14.079Z,22.27
2018-03-25T18:03:41.770Z,21.67
2018-03-25T18:06:09.294Z,22.53
2018-03-25T18:08:36.798Z,21.33
2018-03-25T18:11:04.332Z,22.70
2018-03-25T18:13:31.897Z,22.87
2018-03-25T18:15:59.406Z,22.13
2018-03-25T18:18:26.900Z,22.63
2018-03-25T18:20:56.290Z,23.40
2018-03-25T18:23:22.248Z,22.10
2018-03-25T18:25:49.779Z,23.20
2018-03-25T18:28:17.414Z,23.57
2018-03-25T18:30:44.931Z,22.60
2018-03-25T18:33:12.427Z,23.63
2018-03-25T18:35:39.925Z,23.40
2018-03-25T18:38:07.442Z,23.63
2018-03-25T18:40:35.124Z,24.67
2018-03-25T18:43:02.677Z,26.13
2018-03-25T18:45:30.217Z,25.03
2018-03-25T18:47:57.740Z,28.60
2018-03-25T18:50:25.281Z,25.47
2018-03-25T18:52:52.879Z,24.93
2018-03-25T18:55:20.414Z,25.63
2018-03-25T18:57:47.900Z,25.83
2018-03-25T19:00:15.640Z,25.07
2018-03-25T19:02:43.150Z,24.57
2018-03-25T19:05:10.641Z,24.90
2018-03-25T19:07:38.458Z,24.13
2018-03-25T19:10:05.988Z,26.87
2018-03-25T19:12:33.498Z,30.80
2018-03-25T19:15:00.988Z,32.27
2018-03-25T19:17:28.519Z,29.87
2018-03-25T19:19:56.012Z,29.83
2018-03-25T19:22:23.518Z,36.30
2018-03-25T19:24:51.004Z,40.57
2018-03-25T19:27:18.518Z,36.83
2018-03-25T19:29:46.007Z,36.87
2018-03-25T19:32:13.528Z,35.47
2018-03-25T19:34:41.028Z,36.00
2018-03-25T19:37:08.533Z,37.13
2018-03-25T19:39:36.019Z,39.17
2018-03-25T19:42:03.555Z,33.63
2018-03-25T19:44:31.054Z,35.13
2018-03-25T19:46:58.572Z,33.77
2018-03-25T19:49:26.067Z,31.93
2018-03-25T19:51:53.590Z,33.87
2018-03-25T19:54:21.083Z,34.23
2018-03-25T19:56:48.567Z,33.83
2018-03-25T19:59:16.083Z,36.07
2018-03-25T20:01:43.574Z,41.03
2018-03-25T20:04:11.083Z,38.60
2018-03-25T20:06:38.575Z,37.80
2018-03-25T20:09:06.090Z,37.23
2018-03-25T20:11:33.597Z,39.83
2018-03-25T20:14:01.139Z,37.50
2018-03-25T20:16:28.647Z,38.80
2018-03-25T20:18:56.169Z,37.67
2018-03-25T20:21:23.663Z,40.70
2018-03-25T20:23:51.188Z,41.87
2018-03-25T20:26:18.682Z,38.80
2018-03-25T20:28:46.227Z,38.27
2018-03-25T20:31:13.865Z,37.53
2018-03-25T20:33:41.390Z,37.90
2018-03-25T20:36:09.032Z,43.00
2018-03-25T20:38:36.681Z,39.30
2018-03-25T20:41:04.203Z,41.73
2018-03-25T20:43:31.853Z,41.70
2018-03-25T20:45:59.356Z,43.00
2018-03-25T20:48:27.127Z,38.97
2018-03-25T20:50:54.680Z,40.27
2018-03-25T20:53:22.161Z,38.47
2018-03-25T20:55:49.686Z,39.97
2018-03-25T20:58:17.170Z,43.67
2018-03-25T21:00:44.692Z,40.60
2018-03-25T21:03:12.187Z,37.27
2018-03-25T21:05:39.747Z,37.13
2018-03-25T21:08:07.351Z,37.70
2018-03-25T21:10:34.909Z,39.37
2018-03-25T21:13:02.570Z,38.27
2018-03-25T21:15:30.098Z,38.57
2018-03-25T21:17:57.585Z,38.60
2018-03-25T21:20:25.303Z,41.57
2018-03-25T21:22:52.806Z,38.47
2018-03-25T21:25:20.332Z,39.43
2018-03-25T21:27:48.007Z,41.30
2018-03-25T21:30:15.541Z,36.87
2018-03-25T21:32:43.076Z,38.77
2018-03-25T21:35:10.611Z,40.50
2018-03-25T21:37:38.247Z,41.27
2018-03-25T21:40:05.775Z,41.87
2018-03-25T21:42:33.262Z,40.93
2018-03-25T21:45:00.759Z,41.57
2018-03-25T21:47:28.270Z,41.47
2018-03-25T21:49:55.771Z,42.80
2018-03-25T21:52:23.296Z,44.13
2018-03-25T21:54:50.781Z,43.77
2018-03-25T21:57:18.322Z,41.83
2018-03-25T21:59:45.819Z,44.97
2018-03-25T22:02:13.335Z,45.60
2018-03-25T22:04:40.835Z,43.40
2018-03-25T22:07:08.355Z,45.33
2018-03-25T22:09:35.842Z,44.73
2018-03-25T22:12:03.356Z,42.07
2018-03-25T22:14:30.851Z,43.13
2018-03-25T22:16:58.378Z,41.63
2018-03-25T22:19:25.870Z,39.83
2018-03-25T22:21:53.391Z,38.43
2018-03-25T22:24:20.882Z,39.03
2018-03-25T22:26:48.435Z,39.20
2018-03-25T22:29:15.918Z,39.90
2018-03-25T22:31:43.436Z,38.43
2018-03-25T22:34:10.918Z,42.93
2018-03-25T22:36:38.429Z,43.47
2018-03-25T22:39:05.918Z,45.00
2018-03-25T22:41:33.437Z,43.93
2018-03-25T22:44:00.945Z,39.97
2018-03-25T22:46:28.437Z,41.93
2018-03-25T22:48:55.950Z,41.37
2018-03-25T22:51:23.447Z,38.97
2018-03-25T22:53:50.966Z,39.90
2018-03-25T22:56:18.453Z,39.50
2018-03-25T22:58:45.970Z,37.97
2018-03-25T23:01:13.458Z,36.90
2018-03-25T23:03:40.970Z,35.30
2018-03-25T23:06:08.454Z,33.83
2018-03-25T23:08:35.974Z,36.30
2018-03-25T23:11:03.483Z,35.50
2018-03-25T23:13:31.002Z,35.50
2018-03-25T23:15:58.491Z,35.17
2018-03-25T23:18:25.998Z,35.00
2018-03-25T23:20:53.490Z,34.33
2018-03-25T23:23:21.011Z,33.50
2018-03-25T23:25:48.531Z,34.27
2018-03-25T23:28:16.050Z,35.63
2018-03-25T23:30:43.538Z,34.97
2018-03-25T23:33:11.022Z,33.47
2018-03-25T23:35:38.546Z,32.90
2018-03-25T23:38:06.042Z,33.10
2018-03-25T23:40:33.603Z,31.63
2018-03-25T23:43:01.094Z,32.57
2018-03-25T23:45:28.621Z,34.30
2018-03-25T23:47:56.106Z,34.13
2018-03-25T23:50:23.619Z,32.13
2018-03-25T23:52:51.106Z,33.17
2018-03-25T23:55:18.638Z,32.53
2018-03-25T23:57:46.122Z,31.97
